Аэропорт: Уфа. Уфа

ICAO: UWUU

METAR:
2021-01-20 03:00:00
UWUU 200300Z 20003MPS 9999 OVC014 M19/M21 Q1011 R14R/490548 NOSIG
METAR:
2021-01-20 01:50:00
TAF UWUU 200150Z 2003/2103 20004MPS 4500 -SN OVC010 TXM18/2003Z TNM24/2024Z TEMPO 2003/2006 VRB01MPS 0500 SN FZFG OVC003 FM200600 22004MPS 6000 BKN020 TEMPO 2006/2012 26006G12MPS 2100 -SHSN BKN007CB TEMPO 2012/2103 24006G13MPS 4500 -SHSN BKN016CB